createdAt,value
2022-11-26T00:00:26.952Z,5.00
2022-11-26T00:05:23.644Z,4.70
2022-11-26T00:10:23.218Z,4.80
2022-11-26T00:15:20.853Z,4.90
2022-11-26T00:20:15.082Z,4.90
2022-11-26T00:25:16.985Z,4.90
2022-11-26T00:30:20.261Z,4.90
2022-11-26T00:35:14.862Z,4.90
2022-11-26T00:40:20.929Z,4.90
2022-11-26T00:45:19.252Z,4.90
2022-11-26T00:50:16.948Z,4.90
2022-11-26T00:55:28.127Z,4.90
2022-11-26T01:00:26.023Z,4.90
2022-11-26T01:05:21.345Z,5.00
2022-11-26T01:10:23.889Z,4.90
2022-11-26T01:15:18.924Z,4.90
2022-11-26T01:20:25.668Z,4.90
2022-11-26T01:25:22.221Z,4.80
2022-11-26T01:30:22.390Z,4.70
2022-11-26T01:35:16.349Z,4.50
2022-11-26T01:40:39.977Z,4.60
2022-11-26T01:45:33.823Z,4.60
2022-11-26T01:51:03.112Z,4.50
2022-11-26T01:56:01.903Z,4.60
2022-11-26T02:00:55.490Z,4.60
2022-11-26T02:06:00.109Z,4.60
2022-11-26T02:10:53.865Z,4.60
2022-11-26T02:16:01.047Z,4.70
2022-11-26T02:21:01.823Z,4.40
2022-11-26T02:26:47.007Z,4.30
2022-11-26T02:31:50.047Z,4.10
2022-11-26T02:36:52.668Z,4.50
2022-11-26T02:41:50.518Z,4.60
2022-11-26T02:46:49.175Z,4.60
2022-11-26T02:51:45.643Z,4.70
2022-11-26T02:56:41.739Z,4.80
2022-11-26T03:01:42.167Z,4.90
2022-11-26T03:06:38.081Z,5.00
2022-11-26T03:11:34.141Z,5.00
2022-11-26T03:16:27.545Z,5.10
2022-11-26T03:21:21.069Z,5.20
2022-11-26T03:26:15.692Z,5.30
2022-11-26T03:31:09.029Z,5.20
2022-11-26T03:36:02.481Z,5.20
2022-11-26T03:41:02.405Z,5.10
2022-11-26T03:45:58.389Z,5.20
2022-11-26T03:50:51.738Z,5.20
2022-11-26T03:55:45.717Z,5.20
2022-11-26T04:00:39.017Z,5.20
2022-11-26T04:05:34.248Z,5.30
2022-11-26T04:10:27.798Z,5.20
2022-11-26T04:15:21.173Z,5.10
2022-11-26T04:20:15.284Z,5.20
2022-11-26T04:25:10.881Z,5.20
2022-11-26T04:30:05.306Z,5.20
2022-11-26T04:34:58.708Z,5.10
2022-11-26T04:39:52.016Z,5.20
2022-11-26T04:44:46.842Z,5.20
2022-11-26T04:49:40.287Z,5.30
2022-11-26T04:54:33.567Z,5.30
2022-11-26T04:59:27.018Z,5.30
2022-11-26T05:04:21.743Z,5.30
2022-11-26T05:09:15.051Z,5.30
2022-11-26T05:14:08.894Z,5.20
2022-11-26T05:19:02.282Z,5.20
2022-11-26T05:23:57.095Z,5.30
2022-11-26T05:28:50.418Z,5.20
2022-11-26T05:33:43.820Z,5.10
2022-11-26T05:38:37.287Z,5.00
2022-11-26T05:43:32.257Z,5.00
2022-11-26T05:48:25.550Z,4.70
2022-11-26T05:53:18.768Z,4.70
2022-11-26T05:58:12.018Z,4.80
2022-11-26T06:03:06.848Z,4.90
2022-11-26T06:08:00.339Z,5.10
2022-11-26T06:12:54.511Z,5.10
2022-11-26T06:17:47.936Z,5.20
2022-11-26T06:22:44.938Z,5.20
2022-11-26T06:27:39.034Z,5.10
2022-11-26T06:32:33.051Z,5.10
2022-11-26T06:37:26.906Z,5.00
2022-11-26T06:42:21.739Z,5.00
2022-11-26T06:47:15.509Z,5.00
2022-11-26T06:52:09.389Z,5.10
2022-11-26T06:57:02.718Z,5.10
2022-11-26T07:01:57.569Z,5.00
2022-11-26T07:06:51.840Z,5.10
2022-11-26T07:11:45.351Z,5.10
2022-11-26T07:16:38.793Z,5.10
2022-11-26T07:21:33.505Z,5.20
2022-11-26T07:26:26.879Z,5.10
2022-11-26T07:31:22.842Z,5.00
2022-11-26T07:36:19.815Z,5.00
2022-11-26T07:41:18.561Z,5.10
2022-11-26T07:46:14.672Z,5.30
2022-11-26T07:51:14.800Z,5.50
2022-11-26T07:56:08.942Z,5.50
2022-11-26T08:01:10.941Z,5.70
2022-11-26T08:06:08.527Z,5.60
2022-11-26T08:11:01.977Z,5.80
2022-11-26T08:15:55.434Z,5.70
2022-11-26T08:20:57.360Z,5.70
2022-11-26T08:26:14.229Z,5.70
2022-11-26T08:31:05.194Z,5.50
2022-11-26T08:36:07.230Z,5.40
2022-11-26T08:41:02.829Z,5.40
2022-11-26T08:45:58.037Z,5.50
2022-11-26T08:50:51.743Z,5.50
2022-11-26T08:55:59.603Z,5.50
2022-11-26T09:00:53.598Z,5.50
2022-11-26T09:05:47.046Z,5.50
2022-11-26T09:10:40.453Z,5.40
2022-11-26T09:15:35.228Z,5.40
2022-11-26T09:20:28.516Z,5.40
2022-11-26T09:25:21.909Z,5.50
2022-11-26T09:30:16.319Z,5.50
2022-11-26T09:35:11.260Z,5.60
2022-11-26T09:40:04.973Z,5.70
2022-11-26T09:45:12.503Z,5.80
2022-11-26T09:50:22.214Z,5.80
2022-11-26T09:55:20.489Z,5.80
2022-11-26T10:00:27.586Z,6.00
2022-11-26T10:05:27.110Z,6.10
2022-11-26T10:10:30.636Z,6.10
2022-11-26T10:15:36.370Z,6.00
2022-11-26T10:21:05.178Z,6.10
2022-11-26T10:26:16.377Z,6.20
2022-11-26T10:31:21.096Z,6.30
2022-11-26T10:36:24.944Z,6.30
2022-11-26T10:41:20.639Z,6.30
2022-11-26T10:46:33.957Z,6.30
2022-11-26T10:51:33.282Z,6.30
2022-11-26T10:56:37.636Z,6.30
2022-11-26T11:01:37.482Z,6.40
2022-11-26T11:06:43.433Z,6.20
2022-11-26T11:11:36.801Z,6.30
2022-11-26T11:16:39.507Z,6.30
2022-11-26T11:21:43.866Z,6.40
2022-11-26T11:26:44.686Z,6.50
2022-11-26T11:31:48.582Z,6.70
2022-11-26T11:36:43.457Z,6.70
2022-11-26T11:41:46.485Z,6.70
2022-11-26T11:47:25.988Z,6.60
2022-11-26T11:52:36.666Z,6.50
2022-11-26T11:57:53.190Z,6.50
2022-11-26T12:03:28.878Z,6.60
2022-11-26T12:08:53.551Z,6.60
2022-11-26T12:13:53.402Z,6.60
2022-11-26T12:18:57.425Z,6.60
2022-11-26T12:23:59.267Z,6.60
2022-11-26T12:29:00.324Z,6.80
2022-11-26T12:34:05.585Z,6.90
2022-11-26T12:39:18.559Z,6.90
2022-11-26T12:44:21.037Z,6.90
2022-11-26T12:49:21.833Z,6.90
2022-11-26T12:54:25.570Z,6.90
2022-11-26T12:59:25.269Z,6.90
2022-11-26T13:04:37.118Z,6.90
2022-11-26T13:09:57.495Z,7.00
2022-11-26T13:15:00.057Z,7.00
2022-11-26T13:20:05.989Z,7.00
2022-11-26T13:25:29.863Z,7.00
2022-11-26T13:30:33.517Z,6.90
2022-11-26T13:36:09.728Z,6.90
2022-11-26T13:41:47.267Z,6.80
2022-11-26T13:46:48.199Z,6.90
2022-11-26T13:51:48.868Z,6.90
2022-11-26T13:56:46.314Z,6.90
2022-11-26T14:01:42.039Z,7.00
2022-11-26T14:06:36.604Z,6.90
2022-11-26T14:12:01.937Z,6.90
2022-11-26T14:17:24.417Z,6.90
2022-11-26T14:22:31.491Z,7.00
2022-11-26T14:27:29.843Z,6.90
2022-11-26T14:32:26.384Z,6.90
2022-11-26T14:37:23.071Z,6.80
2022-11-26T14:42:18.564Z,6.70
2022-11-26T14:47:21.769Z,6.70
2022-11-26T14:52:22.868Z,6.60
2022-11-26T14:57:23.960Z,6.50
2022-11-26T15:02:26.936Z,6.50
2022-11-26T15:07:25.746Z,6.40
2022-11-26T15:12:23.704Z,6.40
2022-11-26T15:17:21.752Z,6.30
2022-11-26T15:22:25.942Z,6.30
2022-11-26T15:27:31.971Z,6.40
2022-11-26T15:32:30.449Z,6.30
2022-11-26T15:37:25.285Z,6.30
2022-11-26T15:42:30.682Z,6.20
2022-11-26T15:47:28.972Z,6.10
2022-11-26T15:52:30.630Z,6.00
2022-11-26T15:57:31.021Z,6.00
2022-11-26T16:02:27.203Z,6.00
2022-11-26T16:07:23.355Z,5.90
2022-11-26T16:12:34.256Z,5.70
2022-11-26T16:17:27.602Z,5.50
2022-11-26T16:22:28.354Z,5.20
2022-11-26T16:27:34.578Z,4.90
2022-11-26T16:32:27.902Z,4.90
2022-11-26T16:37:24.030Z,4.90
2022-11-26T16:42:20.335Z,5.00
2022-11-26T16:47:22.514Z,4.80
2022-11-26T16:52:19.548Z,4.70
2022-11-26T16:57:16.625Z,4.60
2022-11-26T17:02:18.353Z,4.60
2022-11-26T17:07:15.136Z,4.70
2022-11-26T17:12:17.642Z,4.40
2022-11-26T17:17:13.819Z,4.30
2022-11-26T17:22:09.400Z,4.30
2022-11-26T17:27:06.368Z,4.40
2022-11-26T17:32:00.378Z,4.30
2022-11-26T17:37:01.316Z,4.20
2022-11-26T17:41:56.009Z,4.30
2022-11-26T17:47:15.269Z,4.20
2022-11-26T17:52:03.216Z,4.10
2022-11-26T17:56:57.935Z,4.00
2022-11-26T18:01:51.296Z,4.00
2022-11-26T18:06:57.797Z,4.00
2022-11-26T18:11:53.946Z,4.00
2022-11-26T18:16:48.943Z,3.70
2022-11-26T18:21:44.159Z,3.80
2022-11-26T18:26:37.982Z,3.70
2022-11-26T18:31:38.005Z,3.70
2022-11-26T18:36:34.279Z,3.80
2022-11-26T18:41:27.792Z,3.80
2022-11-26T18:46:21.203Z,3.70
2022-11-26T18:51:15.669Z,3.60
2022-11-26T18:56:14.470Z,3.50
2022-11-26T19:01:15.133Z,3.50
2022-11-26T19:06:09.809Z,3.60
2022-11-26T19:11:11.485Z,3.60
2022-11-26T19:16:15.850Z,3.40
2022-11-26T19:21:18.442Z,3.10
2022-11-26T19:26:14.267Z,3.10
2022-11-26T19:31:11.392Z,3.10
2022-11-26T19:36:06.655Z,3.00
2022-11-26T19:41:01.447Z,3.00
2022-11-26T19:46:03.787Z,3.00
2022-11-26T19:50:57.470Z,2.90
2022-11-26T19:55:58.780Z,2.90
2022-11-26T20:00:52.392Z,2.90
2022-11-26T20:05:47.342Z,2.90
2022-11-26T20:10:43.560Z,2.80
2022-11-26T20:15:42.121Z,3.00
2022-11-26T20:20:36.487Z,3.10
2022-11-26T20:25:35.255Z,3.20
2022-11-26T20:30:29.697Z,3.10
2022-11-26T20:35:23.320Z,2.80
2022-11-26T20:40:17.894Z,2.70
2022-11-26T20:45:13.588Z,2.70
2022-11-26T20:50:10.784Z,2.60
2022-11-26T20:55:04.610Z,2.70
2022-11-26T20:59:58.086Z,2.50
2022-11-26T21:04:53.139Z,2.50
2022-11-26T21:09:47.716Z,2.70
2022-11-26T21:14:41.092Z,2.80
2022-11-26T21:19:34.424Z,2.90
2022-11-26T21:24:29.231Z,2.90
2022-11-26T21:29:23.175Z,3.00
2022-11-26T21:34:16.751Z,3.20
2022-11-26T21:39:12.464Z,3.20
2022-11-26T21:44:07.315Z,3.10
2022-11-26T21:49:00.695Z,3.10
2022-11-26T21:53:55.960Z,2.90
2022-11-26T21:58:49.923Z,2.80
2022-11-26T22:03:47.263Z,2.70
2022-11-26T22:08:41.974Z,2.80
2022-11-26T22:13:35.306Z,3.00
2022-11-26T22:18:28.669Z,3.00
2022-11-26T22:23:23.807Z,2.90
2022-11-26T22:28:17.096Z,3.00
2022-11-26T22:33:10.724Z,3.00
2022-11-26T22:38:04.289Z,3.00
2022-11-26T22:42:59.179Z,3.10
2022-11-26T22:47:53.176Z,3.10
2022-11-26T22:52:46.663Z,2.90
2022-11-26T22:57:39.961Z,2.80
2022-11-26T23:02:35.222Z,2.70
2022-11-26T23:07:28.724Z,2.90
2022-11-26T23:12:22.935Z,3.00
2022-11-26T23:17:16.395Z,3.00
2022-11-26T23:22:11.089Z,3.10
2022-11-26T23:27:04.595Z,3.20
2022-11-26T23:31:58.127Z,3.20
2022-11-26T23:36:51.501Z,3.30
2022-11-26T23:41:46.271Z,3.30
2022-11-26T23:46:39.717Z,3.30
2022-11-26T23:51:34.950Z,3.30
2022-11-26T23:56:33.944Z,3.30
